Time;durP1;ratioP1;P1;durP2;ratioP2;P2;SDS_P1;SDS_P2;PMS_P1;PMS_P2;Temp;Humidity;BMP_temperature;BMP_pressure;BME280_temperature;BME280_humidity;BME280_pressure;Samples;Min_cycle;Max_cycle;Signal;HPM_P1;HPM_P2
2024/04/10 00:01:57;;;;;;;6.25;1.88;;;;;;;;;;5405716;26;20075;-62
2024/04/10 00:04:22;;;;;;;5.82;1.35;;;;;;;;;;5400479;26;20010;-63
2024/04/10 00:06:48;;;;;;;5.38;1.83;;;;;;;;;;5408855;26;20010;-62
2024/04/10 00:09:13;;;;;;;3.67;1.55;;;;;;;;;;5408319;26;20321;-62
2024/04/10 00:11:38;;;;;;;2.83;1.50;;;;;;;;;;5409640;26;20034;-62
2024/04/10 00:14:03;;;;;;;3.40;1.50;;;;;;;;;;5408439;26;20003;-62
2024/04/10 00:16:29;;;;;;;3.47;1.50;;;;;;;;;;5408854;26;19999;-63
2024/04/10 00:18:54;;;;;;;4.53;1.50;;;;;;;;;;5408699;26;20003;-61
2024/04/10 00:21:20;;;;;;;3.35;1.50;;;;;;;;;;5401571;26;20003;-62
2024/04/10 00:23:45;;;;;;;2.28;1.60;;;;;;;;;;5403537;26;20046;-62
2024/04/10 00:26:10;;;;;;;6.88;1.75;;;;;;;;;;5408070;26;20013;-62
2024/04/10 00:28:36;;;;;;;3.22;1.42;;;;;;;;;;5407631;26;20133;-62
2024/04/10 00:31:04;;;;;;;3.25;1.48;;;;;;;;;;5408350;26;19995;-63
2024/04/10 00:33:30;;;;;;;4.50;1.70;;;;;;;;;;5408272;26;20010;-63
2024/04/10 00:35:55;;;;;;;4.72;1.58;;;;;;;;;;5406591;26;20521;-62
2024/04/10 00:38:21;;;;;;;3.63;1.23;;;;;;;;;;5402484;26;19995;-62
2024/04/10 00:40:55;;;;;;;3.67;1.95;;;;;;;;;;5405695;26;20441;-62
2024/04/10 00:43:20;;;;;;;3.00;1.63;;;;;;;;;;5404592;26;20072;-63
2024/04/10 00:45:46;;;;;;;2.83;1.58;;;;;;;;;;5406218;26;20015;-63
2024/04/10 00:48:14;;;;;;;2.90;1.60;;;;;;;;;;5400932;26;20446;-63
2024/04/10 00:50:39;;;;;;;5.13;1.83;;;;;;;;;;5405693;26;20058;-63
2024/04/10 00:53:05;;;;;;;4.03;1.60;;;;;;;;;;5407408;26;20012;-63
2024/04/10 00:55:30;;;;;;;5.78;1.83;;;;;;;;;;5407957;26;20081;-63
2024/04/10 00:57:55;;;;;;;3.47;1.60;;;;;;;;;;5388065;26;20001;-63
2024/04/10 01:00:21;;;;;;;3.60;1.38;;;;;;;;;;5399848;26;20448;-63
2024/04/10 01:02:47;;;;;;;3.63;1.60;;;;;;;;;;5407047;26;19995;-65
2024/04/10 01:05:13;;;;;;;2.42;1.40;;;;;;;;;;5407507;26;19995;-63
2024/04/10 01:07:38;;;;;;;4.38;1.33;;;;;;;;;;5408333;26;20300;-63
2024/04/10 01:10:04;;;;;;;3.08;1.58;;;;;;;;;;5397284;26;20610;-63
2024/04/10 01:12:33;;;;;;;3.45;1.70;;;;;;;;;;5406989;26;19999;-64
2024/04/10 01:14:59;;;;;;;4.20;1.70;;;;;;;;;;5406276;26;20054;-63
2024/04/10 01:17:24;;;;;;;5.43;1.55;;;;;;;;;;5400404;26;19999;-63
2024/04/10 01:19:50;;;;;;;3.92;1.58;;;;;;;;;;5388938;26;20302;-63
2024/04/10 01:22:15;;;;;;;3.70;1.85;;;;;;;;;;5407195;26;19992;-62
2024/04/10 01:24:41;;;;;;;4.55;1.48;;;;;;;;;;5407117;26;20382;-62
2024/04/10 01:27:06;;;;;;;3.97;1.83;;;;;;;;;;5407075;26;20382;-63
2024/04/10 01:29:32;;;;;;;3.20;1.70;;;;;;;;;;5396476;26;20325;-63
2024/04/10 01:31:57;;;;;;;3.90;1.75;;;;;;;;;;5407040;26;20072;-62
2024/04/10 01:34:22;;;;;;;3.90;1.50;;;;;;;;;;5403302;26;20018;-63
2024/04/10 01:36:48;;;;;;;4.80;1.70;;;;;;;;;;5404279;26;20361;-62
2024/04/10 01:39:13;;;;;;;2.80;1.77;;;;;;;;;;5408900;26;20007;-64
2024/04/10 01:41:38;;;;;;;4.72;1.90;;;;;;;;;;5403162;26;20093;-63
2024/04/10 01:44:04;;;;;;;3.25;1.60;;;;;;;;;;5403289;26;20011;-63
2024/04/10 01:46:29;;;;;;;4.15;1.85;;;;;;;;;;5402948;26;19992;-65
2024/04/10 01:48:54;;;;;;;4.03;2.00;;;;;;;;;;5423846;26;19995;-62
2024/04/10 01:51:19;;;;;;;4.18;2.10;;;;;;;;;;5405541;26;19996;-64
2024/04/10 01:53:45;;;;;;;3.45;2.10;;;;;;;;;;5388650;26;20023;-63
2024/04/10 01:56:10;;;;;;;5.43;1.88;;;;;;;;;;5407168;26;20015;-63
2024/04/10 01:58:35;;;;;;;3.78;1.83;;;;;;;;;;5406787;26;19999;-63
2024/04/10 02:01:01;;;;;;;3.83;1.35;;;;;;;;;;5410412;26;20098;-63
2024/04/10 02:03:26;;;;;;;4.18;1.73;;;;;;;;;;5411687;26;20502;-63
2024/04/10 02:05:51;;;;;;;4.20;1.70;;;;;;;;;;5412191;26;20070;-63
2024/04/10 02:08:17;;;;;;;3.83;1.88;;;;;;;;;;5411442;26;20011;-63
2024/04/10 02:10:42;;;;;;;3.88;2.05;;;;;;;;;;5395271;26;19996;-63
2024/04/10 02:13:07;;;;;;;3.63;2.00;;;;;;;;;;5406508;26;20059;-63
2024/04/10 02:15:33;;;;;;;5.15;2.05;;;;;;;;;;5402405;26;20344;-63
2024/04/10 02:17:58;;;;;;;4.45;2.00;;;;;;;;;;5412257;26;20020;-62
2024/04/10 02:20:23;;;;;;;4.43;1.88;;;;;;;;;;5397180;26;20004;-63
2024/04/10 02:22:48;;;;;;;3.92;1.80;;;;;;;;;;5411097;26;20004;-62
2024/04/10 02:25:14;;;;;;;2.97;1.83;;;;;;;;;;5412004;26;20008;-64
2024/04/10 02:27:39;;;;;;;4.45;2.15;;;;;;;;;;5411792;26;20003;-63
2024/04/10 02:30:06;;;;;;;5.95;2.00;;;;;;;;;;5411287;26;20042;-63
2024/04/10 02:32:32;;;;;;;4.82;2.00;;;;;;;;;;5404079;26;20057;-63
2024/04/10 02:34:57;;;;;;;4.18;2.03;;;;;;;;;;5407706;26;20004;-63
2024/04/10 02:37:23;;;;;;;4.47;1.90;;;;;;;;;;5410654;26;20004;-63
2024/04/10 02:39:49;;;;;;;4.10;2.05;;;;;;;;;;5408491;26;20338;-63
2024/04/10 02:42:14;;;;;;;4.60;2.05;;;;;;;;;;5407461;26;20004;-64
2024/04/10 02:44:39;;;;;;;4.93;2.17;;;;;;;;;;5410524;26;20004;-62
2024/04/10 02:47:05;;;;;;;4.70;2.10;;;;;;;;;;5407784;26;20003;-62
2024/04/10 02:49:30;;;;;;;4.55;1.80;;;;;;;;;;5401125;26;20015;-62
2024/04/10 02:51:55;;;;;;;4.20;1.88;;;;;;;;;;5399682;26;20022;-63
2024/04/10 02:54:21;;;;;;;3.50;1.70;;;;;;;;;;5396193;26;20000;-63
2024/04/10 02:56:46;;;;;;;3.55;1.70;;;;;;;;;;5409640;26;20506;-63
2024/04/10 02:59:11;;;;;;;4.05;2.00;;;;;;;;;;5409989;26;20057;-63
2024/04/10 03:01:39;;;;;;;5.20;2.00;;;;;;;;;;5408676;26;20085;-62
2024/04/10 03:06:49;;;;;;;4.30;1.98;;;;;;;;;;5409787;26;20014;-62
2024/04/10 03:09:14;;;;;;;3.30;1.88;;;;;;;;;;5399282;26;20828;-62
2024/04/10 03:11:40;;;;;;;4.78;2.00;;;;;;;;;;5399682;26;20007;-63
2024/04/10 03:14:05;;;;;;;3.45;2.10;;;;;;;;;;5408854;26;20010;-63
2024/04/10 03:16:30;;;;;;;3.65;2.05;;;;;;;;;;5410539;26;20438;-63
2024/04/10 03:18:56;;;;;;;4.18;2.08;;;;;;;;;;5410109;26;20003;-62
2024/04/10 03:21:21;;;;;;;4.25;2.30;;;;;;;;;;5416171;26;20014;-62
2024/04/10 03:23:47;;;;;;;5.25;2.13;;;;;;;;;;5410051;26;20015;-62
2024/04/10 03:26:13;;;;;;;3.92;1.83;;;;;;;;;;5407109;26;20465;-62
2024/04/10 03:28:40;;;;;;;4.65;1.92;;;;;;;;;;5410508;26;20345;-62
2024/04/10 03:31:06;;;;;;;3.80;1.90;;;;;;;;;;5407095;26;20035;-67
2024/04/10 03:33:31;;;;;;;5.88;2.05;;;;;;;;;;5399705;26;20022;-67
2024/04/10 03:35:57;;;;;;;7.20;2.65;;;;;;;;;;5395023;26;22549;-67
2024/04/10 03:38:23;;;;;;;4.18;2.25;;;;;;;;;;5385541;26;19999;-66
2024/04/10 03:40:48;;;;;;;4.55;2.08;;;;;;;;;;5388085;26;20393;-67
2024/04/10 03:43:13;;;;;;;3.47;2.03;;;;;;;;;;5392309;26;20054;-66
2024/04/10 03:45:39;;;;;;;4.28;2.00;;;;;;;;;;5394471;26;20365;-66
2024/04/10 03:48:04;;;;;;;2.53;1.63;;;;;;;;;;5386062;26;20007;-67
2024/04/10 03:50:30;;;;;;;3.15;1.98;;;;;;;;;;5388149;26;20486;-66
2024/04/10 03:52:55;;;;;;;3.78;1.85;;;;;;;;;;5388933;26;19999;-66
2024/04/10 03:55:20;;;;;;;2.60;1.80;;;;;;;;;;5400801;26;20003;-66
2024/04/10 03:57:46;;;;;;;3.90;2.13;;;;;;;;;;5390431;26;20011;-66
2024/04/10 04:00:11;;;;;;;2.67;1.83;;;;;;;;;;5395761;26;19995;-66
2024/04/10 04:02:36;;;;;;;2.75;1.77;;;;;;;;;;5389385;26;20004;-65
2024/04/10 04:05:02;;;;;;;2.92;2.20;;;;;;;;;;5393833;26;20015;-68
2024/04/10 04:07:27;;;;;;;3.25;1.90;;;;;;;;;;5385096;26;20009;-66
2024/04/10 04:09:53;;;;;;;2.83;1.70;;;;;;;;;;5387037;26;20014;-68
2024/04/10 04:12:18;;;;;;;4.47;2.05;;;;;;;;;;5393049;26;20063;-66
2024/04/10 04:14:43;;;;;;;3.13;1.80;;;;;;;;;;5388351;26;20036;-66
2024/04/10 04:17:09;;;;;;;2.83;1.70;;;;;;;;;;5393771;26;20440;-66
2024/04/10 04:19:34;;;;;;;3.28;1.90;;;;;;;;;;5391661;26;22404;-66
2024/04/10 04:21:59;;;;;;;2.65;1.73;;;;;;;;;;5393290;26;20327;-67
2024/04/10 04:24:25;;;;;;;3.05;1.90;;;;;;;;;;5388990;26;19997;-68
2024/04/10 04:26:50;;;;;;;3.28;1.90;;;;;;;;;;5394003;26;20051;-67
2024/04/10 04:29:16;;;;;;;3.55;1.73;;;;;;;;;;5392722;26;20077;-65
2024/04/10 04:31:41;;;;;;;2.67;1.60;;;;;;;;;;5392892;26;20454;-69
2024/04/10 04:34:12;;;;;;;2.95;1.90;;;;;;;;;;5419732;26;19998;-66
2024/04/10 04:36:39;;;;;;;2.67;1.83;;;;;;;;;;5406305;26;20011;-69
2024/04/10 04:39:07;;;;;;;3.22;1.90;;;;;;;;;;5390107;26;20015;-67
2024/04/10 04:41:33;;;;;;;3.08;1.67;;;;;;;;;;5389339;26;20005;-68
2024/04/10 04:45:44;;;;;;;3.22;1.55;;;;;;;;;;5318761;26;20392;-68
2024/04/10 04:48:10;;;;;;;3.38;1.70;;;;;;;;;;5295970;26;20002;-65
2024/04/10 04:50:36;;;;;;;2.58;1.60;;;;;;;;;;5306525;26;20001;-64
2024/04/10 04:53:01;;;;;;;3.42;1.58;;;;;;;;;;5299956;26;20002;-68
2024/04/10 04:55:27;;;;;;;3.03;1.92;;;;;;;;;;5300679;26;20351;-67
2024/04/10 04:57:52;;;;;;;4.28;1.80;;;;;;;;;;5300344;26;20017;-67
2024/04/10 05:00:20;;;;;;;2.65;1.65;;;;;;;;;;5299718;26;20459;-69
2024/04/10 05:02:48;;;;;;;2.92;1.63;;;;;;;;;;5295711;26;20002;-66
2024/04/10 05:05:14;;;;;;;4.55;1.90;;;;;;;;;;5304020;26;20017;-64
2024/04/10 05:07:39;;;;;;;3.25;1.92;;;;;;;;;;5303353;26;20001;-65
2024/04/10 05:10:05;;;;;;;3.35;1.90;;;;;;;;;;5300665;26;20457;-64
2024/04/10 05:12:30;;;;;;;2.70;1.90;;;;;;;;;;5299952;26;20001;-64
2024/04/10 05:14:56;;;;;;;3.63;1.83;;;;;;;;;;5300288;26;20011;-67
2024/04/10 05:17:21;;;;;;;6.47;2.22;;;;;;;;;;5302035;26;20005;-64
2024/04/10 05:19:47;;;;;;;4.90;1.90;;;;;;;;;;5297635;26;20469;-64
2024/04/10 05:22:13;;;;;;;4.45;2.10;;;;;;;;;;5301170;26;20017;-64
2024/04/10 05:24:38;;;;;;;4.72;2.05;;;;;;;;;;5311180;26;20009;-65
2024/04/10 05:27:04;;;;;;;5.30;1.80;;;;;;;;;;5306458;26;20009;-65
2024/04/10 05:29:30;;;;;;;2.97;1.67;;;;;;;;;;5302187;26;20009;-64
2024/04/10 05:31:55;;;;;;;4.18;2.30;;;;;;;;;;5300807;26;20091;-65
2024/04/10 05:34:20;;;;;;;5.97;2.28;;;;;;;;;;5303494;26;20016;-65
2024/04/10 05:36:46;;;;;;;4.10;2.08;;;;;;;;;;5299552;26;20583;-66
2024/04/10 05:39:23;;;;;;;2.97;2.15;;;;;;;;;;5293904;27;20002;-66
2024/04/10 05:41:48;;;;;;;5.88;2.20;;;;;;;;;;5302154;26;20049;-66
2024/04/10 05:44:14;;;;;;;3.67;1.92;;;;;;;;;;5301349;26;20012;-66
2024/04/10 05:46:39;;;;;;;4.95;2.10;;;;;;;;;;5298458;26;20013;-65
2024/04/10 05:49:06;;;;;;;3.90;2.20;;;;;;;;;;5300948;26;19998;-66
2024/04/10 05:51:31;;;;;;;3.92;2.13;;;;;;;;;;5297623;26;20462;-67
2024/04/10 05:53:57;;;;;;;5.68;2.10;;;;;;;;;;5307210;26;20013;-67
2024/04/10 05:56:22;;;;;;;4.20;2.30;;;;;;;;;;5285009;26;20021;-67
2024/04/10 05:58:48;;;;;;;5.43;2.70;;;;;;;;;;5280983;26;20017;-68
2024/04/10 06:01:13;;;;;;;6.90;2.47;;;;;;;;;;5282412;26;20012;-65
2024/04/10 06:03:39;;;;;;;7.05;2.33;;;;;;;;;;5283075;26;20001;-65
2024/04/10 06:06:13;;;;;;;5.40;2.25;;;;;;;;;;5284522;26;20096;-65
2024/04/10 06:08:42;;;;;;;5.97;2.15;;;;;;;;;;5285386;26;19993;-65
2024/04/10 06:11:07;;;;;;;7.30;2.38;;;;;;;;;;5294419;26;20002;-65
2024/04/10 06:13:32;;;;;;;5.20;2.22;;;;;;;;;;5283934;26;20025;-65
2024/04/10 06:15:58;;;;;;;6.70;2.33;;;;;;;;;;5287558;26;20002;-65
2024/04/10 06:18:24;;;;;;;6.18;2.33;;;;;;;;;;5283146;26;20034;-66
2024/04/10 06:20:55;;;;;;;5.93;2.40;;;;;;;;;;5282960;26;19998;-64
2024/04/10 06:23:21;;;;;;;5.32;2.30;;;;;;;;;;5286514;26;20010;-63
2024/04/10 06:25:49;;;;;;;5.07;2.20;;;;;;;;;;5286718;26;20466;-62
2024/04/10 06:28:15;;;;;;;8.57;2.75;;;;;;;;;;5285211;26;20002;-66
2024/04/10 06:30:40;;;;;;;4.50;2.15;;;;;;;;;;5285440;26;20342;-66
2024/04/10 06:33:05;;;;;;;5.97;2.03;;;;;;;;;;5289787;26;20337;-66
2024/04/10 06:35:31;;;;;;;4.70;1.70;;;;;;;;;;5283840;26;20463;-66
2024/04/10 06:37:56;;;;;;;5.20;2.15;;;;;;;;;;5282383;26;20352;-66
2024/04/10 06:40:22;;;;;;;3.95;2.00;;;;;;;;;;5284932;26;20010;-66
2024/04/10 06:42:47;;;;;;;5.85;2.38;;;;;;;;;;5280668;26;19998;-65
2024/04/10 06:45:13;;;;;;;5.40;1.98;;;;;;;;;;5284298;26;19997;-65
2024/04/10 06:47:38;;;;;;;5.65;2.17;;;;;;;;;;5289024;26;20010;-66
2024/04/10 06:50:04;;;;;;;6.25;2.40;;;;;;;;;;5284009;26;20101;-67
2024/04/10 06:52:30;;;;;;;5.75;2.45;;;;;;;;;;5284124;26;20054;-67
2024/04/10 06:54:55;;;;;;;7.65;2.78;;;;;;;;;;5282552;26;19998;-67
2024/04/10 06:57:20;;;;;;;8.10;2.60;;;;;;;;;;5284572;26;20080;-67
2024/04/10 06:59:46;;;;;;;6.97;2.90;;;;;;;;;;5285568;26;20017;-67
2024/04/10 07:02:11;;;;;;;6.70;2.85;;;;;;;;;;5283448;26;19998;-67
2024/04/10 07:04:37;;;;;;;8.57;3.20;;;;;;;;;;5294482;26;20010;-66
2024/04/10 07:07:03;;;;;;;7.28;2.97;;;;;;;;;;5282360;26;19998;-66
2024/04/10 07:09:28;;;;;;;4.75;2.75;;;;;;;;;;5296614;26;20001;-66
2024/04/10 07:11:54;;;;;;;7.97;2.78;;;;;;;;;;5299049;26;20026;-66
2024/04/10 07:14:19;;;;;;;7.97;3.15;;;;;;;;;;5304399;26;20013;-66
2024/04/10 07:16:44;;;;;;;7.55;3.25;;;;;;;;;;5303345;26;20014;-65
2024/04/10 07:19:10;;;;;;;8.27;3.60;;;;;;;;;;5305268;26;20087;-64
2024/04/10 07:21:35;;;;;;;7.85;3.72;;;;;;;;;;5304778;26;20001;-64
2024/04/10 07:24:02;;;;;;;6.70;3.47;;;;;;;;;;5319760;26;20764;-65
2024/04/10 07:26:27;;;;;;;6.78;3.38;;;;;;;;;;5303245;26;20647;-63
2024/04/10 07:28:54;;;;;;;7.25;3.28;;;;;;;;;;5284937;26;20101;-64
2024/04/10 07:31:25;;;;;;;7.45;3.38;;;;;;;;;;5278241;26;20934;-66
2024/04/10 07:33:53;;;;;;;6.50;3.50;;;;;;;;;;5279172;26;20014;-65
2024/04/10 07:36:18;;;;;;;6.63;3.08;;;;;;;;;;5280569;26;20002;-64
2024/04/10 07:38:44;;;;;;;11.55;3.63;;;;;;;;;;5286721;26;20023;-63
2024/04/10 07:41:09;;;;;;;6.97;2.92;;;;;;;;;;5286054;26;20001;-67
2024/04/10 07:43:35;;;;;;;6.90;3.50;;;;;;;;;;5285414;26;19998;-63
2024/04/10 07:46:10;;;;;;;7.47;2.70;;;;;;;;;;5279773;26;20444;-62
2024/04/10 07:48:35;;;;;;;7.20;3.50;;;;;;;;;;5280257;26;19997;-61
2024/04/10 07:51:01;;;;;;;9.45;3.20;;;;;;;;;;5283715;26;20140;-61
2024/04/10 07:53:27;;;;;;;5.70;3.50;;;;;;;;;;5283252;26;20016;-61
2024/04/10 07:55:52;;;;;;;6.88;2.95;;;;;;;;;;5283971;26;20037;-62
2024/04/10 07:58:18;;;;;;;7.40;3.17;;;;;;;;;;5279391;26;20002;-61
2024/04/10 08:00:43;;;;;;;7.05;3.15;;;;;;;;;;5283313;26;19997;-64
2024/04/10 08:03:10;;;;;;;7.35;3.38;;;;;;;;;;5283724;26;20974;-62
2024/04/10 08:05:35;;;;;;;8.23;3.67;;;;;;;;;;5285093;26;20061;-60
2024/04/10 08:08:00;;;;;;;6.90;3.70;;;;;;;;;;5284658;26;20072;-61
2024/04/10 08:10:26;;;;;;;9.90;3.80;;;;;;;;;;5282948;26;20009;-62
2024/04/10 08:12:54;;;;;;;8.35;3.83;;;;;;;;;;5284716;26;19998;-62
2024/04/10 08:15:19;;;;;;;9.18;3.58;;;;;;;;;;5281762;26;20002;-62
2024/04/10 08:17:45;;;;;;;9.82;4.38;;;;;;;;;;5281420;26;20108;-62
2024/04/10 08:20:11;;;;;;;9.07;4.10;;;;;;;;;;5282676;26;20013;-62
2024/04/10 08:22:36;;;;;;;10.93;4.20;;;;;;;;;;5282417;26;20280;-63
2024/04/10 08:25:01;;;;;;;11.40;4.95;;;;;;;;;;5283577;26;20844;-61
2024/04/10 08:27:27;;;;;;;8.25;3.95;;;;;;;;;;5284043;26;20009;-63
2024/04/10 08:29:53;;;;;;;10.82;3.78;;;;;;;;;;5282427;26;19998;-63
2024/04/10 08:32:18;;;;;;;6.30;3.40;;;;;;;;;;5283545;26;20001;-61
2024/04/10 08:34:44;;;;;;;9.13;3.30;;;;;;;;;;5289675;26;20214;-63
2024/04/10 08:37:09;;;;;;;7.53;3.10;;;;;;;;;;5283153;26;20079;-62
2024/04/10 08:39:34;;;;;;;8.40;3.15;;;;;;;;;;5282349;26;20404;-63
2024/04/10 08:41:59;;;;;;;5.57;2.58;;;;;;;;;;5282224;26;20005;-61
2024/04/10 08:44:25;;;;;;;4.40;2.70;;;;;;;;;;5277317;26;20005;-61
2024/04/10 08:46:51;;;;;;;7.38;2.85;;;;;;;;;;5284102;26;20002;-62
2024/04/10 08:49:17;;;;;;;6.68;2.35;;;;;;;;;;5292332;26;20009;-63
2024/04/10 08:51:42;;;;;;;5.97;2.47;;;;;;;;;;5281625;26;20041;-58
2024/04/10 08:54:07;;;;;;;5.50;2.67;;;;;;;;;;5292238;26;20452;-62
2024/04/10 08:56:33;;;;;;;7.93;2.70;;;;;;;;;;5281434;26;20017;-62
2024/04/10 08:58:58;;;;;;;5.20;2.45;;;;;;;;;;5279109;26;20440;-63
2024/04/10 09:01:37;;;;;;;7.38;2.80;;;;;;;;;;5281861;26;20341;-62
2024/04/10 09:04:09;;;;;;;5.13;2.92;;;;;;;;;;5281246;26;20013;-62
2024/04/10 09:06:35;;;;;;;6.00;2.25;;;;;;;;;;5282047;26;20022;-64
2024/04/10 09:09:00;;;;;;;4.43;2.20;;;;;;;;;;5283917;26;20565;-64
2024/04/10 09:11:26;;;;;;;4.72;2.30;;;;;;;;;;5282483;26;20065;-62
2024/04/10 09:14:07;;;;;;;6.60;2.13;;;;;;;;;;5283419;26;20428;-61
2024/04/10 09:16:33;;;;;;;6.95;2.35;;;;;;;;;;5289339;26;20084;-63
2024/04/10 09:19:08;;;;;;;4.97;2.30;;;;;;;;;;5287418;26;20030;-65
2024/04/10 09:21:33;;;;;;;5.25;1.92;;;;;;;;;;5281451;26;20053;-61
2024/04/10 09:23:59;;;;;;;4.07;1.98;;;;;;;;;;5282284;26;20017;-62
2024/04/10 09:26:25;;;;;;;6.95;2.20;;;;;;;;;;5281631;26;19994;-62
2024/04/10 09:29:01;;;;;;;3.97;1.98;;;;;;;;;;5282797;26;20099;-63
2024/04/10 09:31:26;;;;;;;3.45;1.80;;;;;;;;;;5290272;26;20436;-63
2024/04/10 09:33:51;;;;;;;6.60;2.00;;;;;;;;;;5298024;26;20056;-62
2024/04/10 09:36:17;;;;;;;5.53;2.00;;;;;;;;;;5291682;26;20002;-62
2024/04/10 09:38:42;;;;;;;5.22;1.90;;;;;;;;;;5281646;26;20053;-62
2024/04/10 09:41:08;;;;;;;4.97;1.88;;;;;;;;;;5292326;26;22117;-62
2024/04/10 09:43:33;;;;;;;3.53;1.98;;;;;;;;;;5283668;26;20125;-63
2024/04/10 09:46:01;;;;;;;3.03;1.80;;;;;;;;;;5286866;26;20016;-61
2024/04/10 09:48:31;;;;;;;4.35;1.60;;;;;;;;;;5283328;26;20453;-62
2024/04/10 09:50:57;;;;;;;3.03;1.45;;;;;;;;;;5289872;26;20005;-62
2024/04/10 09:53:22;;;;;;;3.85;1.50;;;;;;;;;;5291267;26;20043;-63
2024/04/10 09:55:47;;;;;;;3.28;1.73;;;;;;;;;;5285961;26;20021;-62
2024/04/10 09:58:13;;;;;;;2.90;1.80;;;;;;;;;;5284643;26;20056;-62
2024/04/10 10:00:38;;;;;;;3.83;1.42;;;;;;;;;;5292187;26;20006;-64
2024/04/10 10:03:07;;;;;;;2.47;1.50;;;;;;;;;;5292282;26;20440;-63
2024/04/10 10:05:32;;;;;;;3.72;1.60;;;;;;;;;;5284796;26;20099;-63
2024/04/10 10:08:04;;;;;;;3.95;1.58;;;;;;;;;;5283398;26;22405;-63
2024/04/10 10:10:29;;;;;;;4.68;1.65;;;;;;;;;;5285725;26;20307;-64
2024/04/10 10:13:04;;;;;;;5.07;1.55;;;;;;;;;;5286629;26;20456;-62
2024/04/10 10:15:30;;;;;;;3.55;1.50;;;;;;;;;;5293038;26;20009;-62
2024/04/10 10:17:55;;;;;;;3.58;1.30;;;;;;;;;;5286222;26;20427;-64
2024/04/10 10:20:21;;;;;;;2.28;1.10;;;;;;;;;;5281013;26;20447;-63
2024/04/10 10:22:59;;;;;;;2.75;1.20;;;;;;;;;;5287583;26;20379;-66
2024/04/10 10:25:24;;;;;;;2.20;1.30;;;;;;;;;;5286635;26;20005;-63
2024/04/10 10:27:50;;;;;;;3.35;1.42;;;;;;;;;;5283357;26;20010;-64
2024/04/10 10:30:16;;;;;;;1.88;1.00;;;;;;;;;;5284747;26;20435;-62
2024/04/10 10:32:41;;;;;;;2.60;1.10;;;;;;;;;;5285551;26;20046;-63
2024/04/10 10:35:07;;;;;;;2.08;1.10;;;;;;;;;;5285148;26;20002;-62
2024/04/10 10:37:32;;;;;;;2.72;1.27;;;;;;;;;;5286285;26;19997;-64
2024/04/10 10:39:58;;;;;;;3.15;1.00;;;;;;;;;;5284647;26;20014;-64
2024/04/10 10:42:23;;;;;;;2.03;1.00;;;;;;;;;;5288824;26;19997;-61
2024/04/10 10:44:50;;;;;;;1.65;0.80;;;;;;;;;;5285201;26;20023;-62
2024/04/10 10:47:15;;;;;;;2.85;1.00;;;;;;;;;;5279545;26;20103;-62
2024/04/10 10:49:41;;;;;;;2.40;0.80;;;;;;;;;;5277741;26;20100;-62
2024/04/10 10:52:06;;;;;;;2.72;0.85;;;;;;;;;;5282155;26;20018;-59
2024/04/10 10:54:32;;;;;;;3.03;0.88;;;;;;;;;;5285505;26;20518;-62
2024/04/10 10:57:04;;;;;;;1.65;0.90;;;;;;;;;;5287821;26;20113;-62
2024/04/10 10:59:29;;;;;;;2.60;0.98;;;;;;;;;;5286121;26;20073;-60
2024/04/10 11:01:54;;;;;;;2.67;0.70;;;;;;;;;;5283852;26;20006;-61
2024/04/10 11:04:20;;;;;;;2.03;1.00;;;;;;;;;;5285595;26;20025;-62
2024/04/10 11:06:45;;;;;;;1.38;0.73;;;;;;;;;;5282754;26;20089;-62
2024/04/10 11:09:11;;;;;;;1.92;0.82;;;;;;;;;;5284265;26;20010;-61
2024/04/10 11:11:39;;;;;;;2.58;0.88;;;;;;;;;;5286016;26;20042;-62
2024/04/10 11:14:05;;;;;;;1.98;0.90;;;;;;;;;;5285872;26;20425;-61
2024/04/10 11:16:33;;;;;;;2.17;0.98;;;;;;;;;;5284048;26;20025;-62
2024/04/10 11:19:03;;;;;;;1.95;1.02;;;;;;;;;;5288661;26;19998;-61
2024/04/10 11:21:30;;;;;;;2.50;0.80;;;;;;;;;;5283001;26;20002;-63
2024/04/10 11:23:55;;;;;;;2.35;0.80;;;;;;;;;;5285057;26;22067;-62
2024/04/10 11:26:21;;;;;;;1.33;0.65;;;;;;;;;;5281470;26;20437;-62
2024/04/10 11:28:51;;;;;;;3.20;0.77;;;;;;;;;;5295901;26;20334;-62
2024/04/10 11:31:16;;;;;;;2.95;0.80;;;;;;;;;;5284583;26;20021;-64
2024/04/10 11:33:42;;;;;;;1.98;0.70;;;;;;;;;;5284800;26;20002;-62
2024/04/10 11:36:08;;;;;;;3.00;0.90;;;;;;;;;;5285414;26;20013;-61
2024/04/10 11:38:37;;;;;;;3.03;1.00;;;;;;;;;;5292512;26;20068;-66
2024/04/10 11:41:03;;;;;;;2.65;1.30;;;;;;;;;;5289660;26;19998;-68
2024/04/10 11:43:28;;;;;;;2.05;1.02;;;;;;;;;;5285203;26;20100;-67
2024/04/10 11:45:54;;;;;;;1.95;1.00;;;;;;;;;;5280391;26;20427;-67
2024/04/10 11:48:19;;;;;;;7.45;1.60;;;;;;;;;;5283816;26;20006;-67
2024/04/10 11:50:44;;;;;;;6.80;1.50;;;;;;;;;;5283986;26;20021;-68
2024/04/10 11:53:10;;;;;;;6.10;1.30;;;;;;;;;;5286431;26;20013;-65
2024/04/10 11:55:35;;;;;;;13.25;1.73;;;;;;;;;;5292669;26;20023;-64
2024/04/10 11:58:01;;;;;;;12.25;1.50;;;;;;;;;;5283995;26;20012;-64
2024/04/10 12:00:26;;;;;;;8.73;1.40;;;;;;;;;;5280684;26;20021;-69
2024/04/10 12:02:52;;;;;;;6.85;1.35;;;;;;;;;;5280542;26;19994;-70
2024/04/10 12:05:18;;;;;;;5.07;1.23;;;;;;;;;;5289014;26;20406;-68
2024/04/10 12:07:44;;;;;;;3.00;1.02;;;;;;;;;;5285553;26;20046;-66
2024/04/10 12:10:10;;;;;;;2.15;0.98;;;;;;;;;;5284182;26;20009;-68
2024/04/10 12:12:35;;;;;;;4.10;1.17;;;;;;;;;;5279413;26;20071;-68
2024/04/10 12:15:01;;;;;;;4.53;0.98;;;;;;;;;;5283870;26;20557;-69
2024/04/10 12:17:29;;;;;;;5.70;0.95;;;;;;;;;;5284375;26;20425;-68
2024/04/10 12:19:54;;;;;;;3.30;0.93;;;;;;;;;;5283469;26;20408;-67
2024/04/10 12:22:20;;;;;;;2.20;1.00;;;;;;;;;;5280973;26;20013;-68
2024/04/10 12:24:45;;;;;;;3.45;0.80;;;;;;;;;;5286124;26;20002;-69
2024/04/10 12:27:10;;;;;;;4.63;1.02;;;;;;;;;;5291452;26;20003;-66
2024/04/10 12:29:35;;;;;;;4.00;0.98;;;;;;;;;;5286367;26;19998;-70
2024/04/10 12:32:02;;;;;;;6.38;1.30;;;;;;;;;;5293835;26;20321;-68
2024/04/10 12:34:27;;;;;;;3.53;0.90;;;;;;;;;;5314440;26;20001;-69
2024/04/10 12:39:37;;;;;;;4.82;1.00;;;;;;;;;;5305130;26;20050;-69
2024/04/10 12:42:04;;;;;;;4.40;1.25;;;;;;;;;;5302523;26;20012;-68
2024/04/10 12:44:30;;;;;;;4.95;0.93;;;;;;;;;;5318735;26;20070;-68
2024/04/10 12:46:55;;;;;;;3.20;0.90;;;;;;;;;;5300232;26;20401;-67
2024/04/10 12:49:21;;;;;;;4.70;0.90;;;;;;;;;;5302309;27;20414;-68
2024/04/10 12:51:46;;;;;;;2.55;0.82;;;;;;;;;;5314126;26;20420;-68
2024/04/10 12:54:11;;;;;;;1.73;1.00;;;;;;;;;;5304721;26;20491;-68
2024/04/10 12:56:37;;;;;;;4.40;1.17;;;;;;;;;;5309360;26;20017;-69
2024/04/10 12:59:02;;;;;;;5.43;0.95;;;;;;;;;;5305372;26;20478;-68
2024/04/10 13:01:28;;;;;;;27.15;2.00;;;;;;;;;;5305498;26;20013;-68
2024/04/10 13:03:55;;;;;;;36.30;4.00;;;;;;;;;;5305529;26;20431;-68
2024/04/10 13:06:24;;;;;;;23.45;2.15;;;;;;;;;;5308515;26;20016;-68
2024/04/10 13:08:53;;;;;;;16.17;1.95;;;;;;;;;;5312508;26;20006;-64
2024/04/10 13:11:18;;;;;;;7.28;1.52;;;;;;;;;;5322481;26;20002;-64
2024/04/10 13:13:43;;;;;;;6.35;1.27;;;;;;;;;;5318457;26;20016;-64
2024/04/10 13:16:09;;;;;;;5.55;1.20;;;;;;;;;;5311866;26;20376;-64
2024/04/10 13:18:34;;;;;;;3.83;1.02;;;;;;;;;;5331537;26;20573;-65
2024/04/10 13:20:59;;;;;;;2.72;1.00;;;;;;;;;;5306362;26;20002;-66
2024/04/10 13:23:26;;;;;;;2.08;1.10;;;;;;;;;;5308229;26;20432;-61
2024/04/10 13:26:01;;;;;;;2.30;0.80;;;;;;;;;;5312021;26;20016;-62
2024/04/10 13:28:27;;;;;;;5.38;1.25;;;;;;;;;;5329591;26;20110;-62
2024/04/10 13:30:52;;;;;;;4.95;0.95;;;;;;;;;;5306701;26;20088;-62
2024/04/10 13:33:18;;;;;;;1.58;0.85;;;;;;;;;;5306135;26;20021;-62
2024/04/10 13:35:43;;;;;;;5.38;1.10;;;;;;;;;;5306899;26;20748;-62
2024/04/10 13:38:08;;;;;;;23.50;2.75;;;;;;;;;;5327867;26;20016;-64
2024/04/10 13:40:33;;;;;;;6.07;1.55;;;;;;;;;;5314687;26;20002;-61
2024/04/10 13:42:59;;;;;;;2.08;0.90;;;;;;;;;;5312838;26;20343;-61
2024/04/10 13:45:24;;;;;;;4.00;0.93;;;;;;;;;;5308647;26;20005;-62
2024/04/10 13:47:49;;;;;;;3.78;0.90;;;;;;;;;;5303260;26;20006;-61
2024/04/10 13:50:15;;;;;;;2.25;1.05;;;;;;;;;;5306249;26;20181;-62
2024/04/10 13:52:40;;;;;;;3.03;1.23;;;;;;;;;;5317929;26;20002;-62
2024/04/10 13:55:06;;;;;;;2.83;1.00;;;;;;;;;;5307396;26;20006;-62
2024/04/10 13:57:31;;;;;;;1.67;0.95;;;;;;;;;;5309090;26;20013;-61
2024/04/10 13:59:56;;;;;;;1.73;0.80;;;;;;;;;;5306899;26;20001;-61
2024/04/10 14:02:23;;;;;;;2.75;0.82;;;;;;;;;;5306932;26;20001;-61
2024/04/10 14:04:49;;;;;;;2.95;1.00;;;;;;;;;;5327286;26;20009;-60
2024/04/10 14:07:15;;;;;;;3.17;0.80;;;;;;;;;;5310461;26;20013;-61
2024/04/10 14:09:40;;;;;;;2.92;0.98;;;;;;;;;;5299872;26;20013;-61
2024/04/10 14:12:06;;;;;;;2.10;0.82;;;;;;;;;;5308113;26;20076;-62
2024/04/10 14:14:31;;;;;;;2.28;0.88;;;;;;;;;;5317216;26;20029;-61
2024/04/10 14:17:01;;;;;;;3.80;0.90;;;;;;;;;;5300497;26;20005;-63
2024/04/10 14:19:26;;;;;;;2.90;0.80;;;;;;;;;;5292895;26;20006;-61
2024/04/10 14:21:52;;;;;;;3.08;1.15;;;;;;;;;;5304646;26;20076;-61
2024/04/10 14:24:17;;;;;;;3.30;1.00;;;;;;;;;;5306618;26;20104;-61
2024/04/10 14:26:43;;;;;;;2.28;0.90;;;;;;;;;;5306106;26;20034;-61
2024/04/10 14:29:08;;;;;;;6.43;1.20;;;;;;;;;;5306373;26;20005;-61
2024/04/10 14:31:34;;;;;;;3.28;0.98;;;;;;;;;;5296856;26;19998;-61
2024/04/10 14:34:00;;;;;;;2.75;0.95;;;;;;;;;;5302512;26;20005;-60
2024/04/10 14:36:25;;;;;;;4.10;0.95;;;;;;;;;;5303653;26;20095;-60
2024/04/10 14:38:50;;;;;;;3.08;1.02;;;;;;;;;;5306632;26;20024;-62
2024/04/10 14:41:16;;;;;;;2.40;1.20;;;;;;;;;;5306364;26;20001;-60
2024/04/10 14:43:41;;;;;;;2.90;1.10;;;;;;;;;;5309785;26;20020;-62